sensor_id;sensor_type;location;lat;lon;timestamp;P1;durP1;ratioP1;P2;durP2;ratioP2
74191;SDS011;62551;51.180;4.366;2022-09-06T00:01:22;6.57;;;2.17;;
74191;SDS011;62551;51.180;4.366;2022-09-06T00:03:52;2.72;;;2.03;;
74191;SDS011;62551;51.180;4.366;2022-09-06T00:06:19;4.35;;;2.97;;
74191;SDS011;62551;51.180;4.366;2022-09-06T00:08:46;3.20;;;2.25;;
74191;SDS011;62551;51.180;4.366;2022-09-06T00:11:14;2.90;;;1.95;;
74191;SDS011;62551;51.180;4.366;2022-09-06T00:13:43;3.47;;;2.03;;
74191;SDS011;62551;51.180;4.366;2022-09-06T00:16:11;2.60;;;1.75;;
74191;SDS011;62551;51.180;4.366;2022-09-06T00:18:39;4.13;;;1.92;;
74191;SDS011;62551;51.180;4.366;2022-09-06T00:21:12;3.65;;;2.13;;
74191;SDS011;62551;51.180;4.366;2022-09-06T00:23:39;4.57;;;2.42;;
74191;SDS011;62551;51.180;4.366;2022-09-06T00:26:07;3.70;;;2.28;;
74191;SDS011;62551;51.180;4.366;2022-09-06T00:28:34;3.33;;;2.20;;
74191;SDS011;62551;51.180;4.366;2022-09-06T00:31:08;3.22;;;2.42;;
74191;SDS011;62551;51.180;4.366;2022-09-06T00:33:35;2.90;;;2.13;;
74191;SDS011;62551;51.180;4.366;2022-09-06T00:36:02;3.30;;;1.92;;
74191;SDS011;62551;51.180;4.366;2022-09-06T00:38:30;3.05;;;2.20;;
74191;SDS011;62551;51.180;4.366;2022-09-06T00:40:57;3.15;;;2.40;;
74191;SDS011;62551;51.180;4.366;2022-09-06T00:43:24;4.25;;;2.42;;
74191;SDS011;62551;51.180;4.366;2022-09-06T00:45:51;3.13;;;2.30;;
74191;SDS011;62551;51.180;4.366;2022-09-06T00:48:21;6.10;;;2.42;;
74191;SDS011;62551;51.180;4.366;2022-09-06T00:50:49;3.58;;;2.38;;
74191;SDS011;62551;51.180;4.366;2022-09-06T00:53:17;2.63;;;2.17;;
74191;SDS011;62551;51.180;4.366;2022-09-06T00:55:45;2.38;;;2.00;;
74191;SDS011;62551;51.180;4.366;2022-09-06T00:58:13;4.72;;;2.35;;
74191;SDS011;62551;51.180;4.366;2022-09-06T01:00:40;4.55;;;2.50;;
74191;SDS011;62551;51.180;4.366;2022-09-06T01:03:09;2.85;;;2.42;;
74191;SDS011;62551;51.180;4.366;2022-09-06T01:05:40;4.32;;;2.25;;
74191;SDS011;62551;51.180;4.366;2022-09-06T01:08:10;4.80;;;2.20;;
74191;SDS011;62551;51.180;4.366;2022-09-06T01:10:42;3.75;;;2.20;;
74191;SDS011;62551;51.180;4.366;2022-09-06T01:13:18;3.10;;;2.30;;
74191;SDS011;62551;51.180;4.366;2022-09-06T01:15:51;4.40;;;2.50;;
74191;SDS011;62551;51.180;4.366;2022-09-06T01:20:52;2.85;;;2.22;;
74191;SDS011;62551;51.180;4.366;2022-09-06T01:23:36;4.38;;;2.40;;
74191;SDS011;62551;51.180;4.366;2022-09-06T01:26:18;4.05;;;2.47;;
74191;SDS011;62551;51.180;4.366;2022-09-06T01:28:52;3.47;;;2.55;;
74191;SDS011;62551;51.180;4.366;2022-09-06T01:31:22;3.15;;;2.42;;
74191;SDS011;62551;51.180;4.366;2022-09-06T01:34:06;4.05;;;2.83;;
74191;SDS011;62551;51.180;4.366;2022-09-06T01:36:39;5.68;;;2.50;;
74191;SDS011;62551;51.180;4.366;2022-09-06T01:39:12;5.40;;;2.92;;
74191;SDS011;62551;51.180;4.366;2022-09-06T01:41:40;4.93;;;2.83;;
74191;SDS011;62551;51.180;4.366;2022-09-06T01:44:08;5.40;;;2.83;;
74191;SDS011;62551;51.180;4.366;2022-09-06T01:46:37;3.78;;;2.85;;
74191;SDS011;62551;51.180;4.366;2022-09-06T01:49:13;4.00;;;2.60;;
74191;SDS011;62551;51.180;4.366;2022-09-06T01:51:46;4.88;;;2.80;;
74191;SDS011;62551;51.180;4.366;2022-09-06T01:54:24;5.53;;;2.88;;
74191;SDS011;62551;51.180;4.366;2022-09-06T01:56:56;3.97;;;2.92;;
74191;SDS011;62551;51.180;4.366;2022-09-06T01:59:33;5.03;;;2.78;;
74191;SDS011;62551;51.180;4.366;2022-09-06T02:02:05;5.50;;;2.83;;
74191;SDS011;62551;51.180;4.366;2022-09-06T02:04:35;6.97;;;2.70;;
74191;SDS011;62551;51.180;4.366;2022-09-06T02:07:07;3.97;;;2.67;;
74191;SDS011;62551;51.180;4.366;2022-09-06T02:09:37;5.00;;;2.75;;
74191;SDS011;62551;51.180;4.366;2022-09-06T02:12:06;5.18;;;3.15;;
74191;SDS011;62551;51.180;4.366;2022-09-06T02:14:38;8.23;;;3.97;;
74191;SDS011;62551;51.180;4.366;2022-09-06T02:17:06;5.55;;;4.10;;
74191;SDS011;62551;51.180;4.366;2022-09-06T02:19:35;6.00;;;3.90;;
74191;SDS011;62551;51.180;4.366;2022-09-06T02:22:06;4.93;;;3.63;;
74191;SDS011;62551;51.180;4.366;2022-09-06T02:24:35;5.50;;;3.25;;
74191;SDS011;62551;51.180;4.366;2022-09-06T02:27:04;4.95;;;3.85;;
74191;SDS011;62551;51.180;4.366;2022-09-06T02:29:32;3.67;;;3.22;;
74191;SDS011;62551;51.180;4.366;2022-09-06T02:32:02;6.00;;;3.08;;
74191;SDS011;62551;51.180;4.366;2022-09-06T02:34:31;4.90;;;3.45;;
74191;SDS011;62551;51.180;4.366;2022-09-06T02:36:58;5.93;;;3.28;;
74191;SDS011;62551;51.180;4.366;2022-09-06T02:39:26;5.75;;;3.50;;
74191;SDS011;62551;51.180;4.366;2022-09-06T02:41:53;7.63;;;3.67;;
74191;SDS011;62551;51.180;4.366;2022-09-06T02:44:20;6.13;;;3.60;;
74191;SDS011;62551;51.180;4.366;2022-09-06T02:46:47;5.45;;;3.10;;
74191;SDS011;62551;51.180;4.366;2022-09-06T02:49:16;3.85;;;3.00;;
74191;SDS011;62551;51.180;4.366;2022-09-06T02:51:43;6.47;;;3.17;;
74191;SDS011;62551;51.180;4.366;2022-09-06T02:54:10;4.60;;;3.08;;
74191;SDS011;62551;51.180;4.366;2022-09-06T02:56:37;3.58;;;2.88;;
74191;SDS011;62551;51.180;4.366;2022-09-06T02:59:05;4.63;;;2.92;;
74191;SDS011;62551;51.180;4.366;2022-09-06T03:01:32;5.05;;;3.50;;
74191;SDS011;62551;51.180;4.366;2022-09-06T03:03:59;5.88;;;3.30;;
74191;SDS011;62551;51.180;4.366;2022-09-06T03:06:28;4.40;;;3.50;;
74191;SDS011;62551;51.180;4.366;2022-09-06T03:08:55;4.97;;;3.00;;
74191;SDS011;62551;51.180;4.366;2022-09-06T03:11:24;7.20;;;3.50;;
74191;SDS011;62551;51.180;4.366;2022-09-06T03:13:51;4.85;;;3.25;;
74191;SDS011;62551;51.180;4.366;2022-09-06T03:16:18;5.45;;;3.72;;
74191;SDS011;62551;51.180;4.366;2022-09-06T03:18:46;4.78;;;3.58;;
74191;SDS011;62551;51.180;4.366;2022-09-06T03:21:13;5.05;;;3.80;;
74191;SDS011;62551;51.180;4.366;2022-09-06T03:23:42;7.75;;;4.45;;
74191;SDS011;62551;51.180;4.366;2022-09-06T03:26:10;6.88;;;5.43;;
74191;SDS011;62551;51.180;4.366;2022-09-06T03:28:37;6.95;;;5.72;;
74191;SDS011;62551;51.180;4.366;2022-09-06T03:31:04;7.30;;;5.85;;
74191;SDS011;62551;51.180;4.366;2022-09-06T03:33:31;6.93;;;5.32;;
74191;SDS011;62551;51.180;4.366;2022-09-06T03:35:59;6.78;;;4.90;;
74191;SDS011;62551;51.180;4.366;2022-09-06T03:38:28;7.03;;;5.50;;
74191;SDS011;62551;51.180;4.366;2022-09-06T03:40:56;6.63;;;5.10;;
74191;SDS011;62551;51.180;4.366;2022-09-06T03:43:24;6.25;;;5.00;;
74191;SDS011;62551;51.180;4.366;2022-09-06T03:45:52;8.57;;;4.88;;
74191;SDS011;62551;51.180;4.366;2022-09-06T03:48:21;7.53;;;4.72;;
74191;SDS011;62551;51.180;4.366;2022-09-06T03:50:50;6.07;;;4.00;;
74191;SDS011;62551;51.180;4.366;2022-09-06T03:53:18;6.63;;;4.82;;
74191;SDS011;62551;51.180;4.366;2022-09-06T03:55:45;5.55;;;3.88;;
74191;SDS011;62551;51.180;4.366;2022-09-06T03:58:14;6.03;;;3.83;;
74191;SDS011;62551;51.180;4.366;2022-09-06T04:00:42;5.82;;;4.15;;
74191;SDS011;62551;51.180;4.366;2022-09-06T04:03:09;5.20;;;3.80;;
74191;SDS011;62551;51.180;4.366;2022-09-06T04:05:36;5.95;;;4.00;;
74191;SDS011;62551;51.180;4.366;2022-09-06T04:08:04;5.88;;;4.03;;
74191;SDS011;62551;51.180;4.366;2022-09-06T04:10:31;9.23;;;4.63;;
74191;SDS011;62551;51.180;4.366;2022-09-06T04:12:58;6.18;;;4.07;;
74191;SDS011;62551;51.180;4.366;2022-09-06T04:15:27;5.47;;;3.75;;
74191;SDS011;62551;51.180;4.366;2022-09-06T04:17:54;5.07;;;4.32;;
74191;SDS011;62551;51.180;4.366;2022-09-06T04:20:22;4.53;;;3.72;;
74191;SDS011;62551;51.180;4.366;2022-09-06T04:22:49;5.55;;;4.38;;
74191;SDS011;62551;51.180;4.366;2022-09-06T04:25:17;5.97;;;4.47;;
74191;SDS011;62551;51.180;4.366;2022-09-06T04:27:44;6.65;;;4.00;;
74191;SDS011;62551;51.180;4.366;2022-09-06T04:30:12;6.47;;;5.00;;
74191;SDS011;62551;51.180;4.366;2022-09-06T04:32:40;6.13;;;4.15;;
74191;SDS011;62551;51.180;4.366;2022-09-06T04:35:07;5.97;;;3.65;;
74191;SDS011;62551;51.180;4.366;2022-09-06T04:37:35;5.65;;;4.25;;
74191;SDS011;62551;51.180;4.366;2022-09-06T04:40:02;5.78;;;4.43;;
74191;SDS011;62551;51.180;4.366;2022-09-06T04:42:29;7.55;;;4.45;;
74191;SDS011;62551;51.180;4.366;2022-09-06T04:44:57;9.70;;;4.88;;
74191;SDS011;62551;51.180;4.366;2022-09-06T04:47:24;9.40;;;6.05;;
74191;SDS011;62551;51.180;4.366;2022-09-06T04:49:53;7.55;;;4.82;;
74191;SDS011;62551;51.180;4.366;2022-09-06T04:52:20;6.05;;;4.80;;
74191;SDS011;62551;51.180;4.366;2022-09-06T04:54:47;6.63;;;4.68;;
74191;SDS011;62551;51.180;4.366;2022-09-06T04:57:14;12.65;;;5.00;;
74191;SDS011;62551;51.180;4.366;2022-09-06T04:59:41;7.40;;;4.22;;
74191;SDS011;62551;51.180;4.366;2022-09-06T05:02:08;6.20;;;4.57;;
74191;SDS011;62551;51.180;4.366;2022-09-06T05:04:36;7.47;;;4.82;;
74191;SDS011;62551;51.180;4.366;2022-09-06T05:07:05;6.88;;;5.03;;
74191;SDS011;62551;51.180;4.366;2022-09-06T05:09:33;5.75;;;4.47;;
74191;SDS011;62551;51.180;4.366;2022-09-06T05:12:01;8.73;;;4.85;;
74191;SDS011;62551;51.180;4.366;2022-09-06T05:14:28;7.18;;;4.80;;
74191;SDS011;62551;51.180;4.366;2022-09-06T05:16:55;6.93;;;5.15;;
74191;SDS011;62551;51.180;4.366;2022-09-06T05:19:23;6.75;;;4.57;;
74191;SDS011;62551;51.180;4.366;2022-09-06T05:21:50;7.72;;;5.47;;
74191;SDS011;62551;51.180;4.366;2022-09-06T05:24:19;5.97;;;4.75;;
74191;SDS011;62551;51.180;4.366;2022-09-06T05:26:46;8.07;;;5.22;;
74191;SDS011;62551;51.180;4.366;2022-09-06T05:29:13;7.32;;;5.60;;
74191;SDS011;62551;51.180;4.366;2022-09-06T05:31:40;10.52;;;5.57;;
74191;SDS011;62551;51.180;4.366;2022-09-06T05:34:08;9.10;;;5.00;;
74191;SDS011;62551;51.180;4.366;2022-09-06T05:36:37;7.97;;;5.68;;
74191;SDS011;62551;51.180;4.366;2022-09-06T05:39:06;10.82;;;6.07;;
74191;SDS011;62551;51.180;4.366;2022-09-06T05:41:34;9.30;;;6.35;;
74191;SDS011;62551;51.180;4.366;2022-09-06T05:44:02;8.88;;;6.78;;
74191;SDS011;62551;51.180;4.366;2022-09-06T05:46:29;7.85;;;5.82;;
74191;SDS011;62551;51.180;4.366;2022-09-06T05:48:57;8.93;;;6.30;;
74191;SDS011;62551;51.180;4.366;2022-09-06T05:51:28;8.93;;;5.65;;
74191;SDS011;62551;51.180;4.366;2022-09-06T05:53:56;9.85;;;6.35;;
74191;SDS011;62551;51.180;4.366;2022-09-06T05:56:24;9.73;;;6.03;;
74191;SDS011;62551;51.180;4.366;2022-09-06T05:58:52;8.20;;;5.95;;
74191;SDS011;62551;51.180;4.366;2022-09-06T06:01:20;8.35;;;5.63;;
74191;SDS011;62551;51.180;4.366;2022-09-06T06:03:51;10.55;;;6.07;;
74191;SDS011;62551;51.180;4.366;2022-09-06T06:06:19;8.15;;;6.07;;
74191;SDS011;62551;51.180;4.366;2022-09-06T06:08:46;10.32;;;6.78;;
74191;SDS011;62551;51.180;4.366;2022-09-06T06:11:14;9.52;;;5.63;;
74191;SDS011;62551;51.180;4.366;2022-09-06T06:13:41;10.43;;;6.25;;
74191;SDS011;62551;51.180;4.366;2022-09-06T06:16:11;8.00;;;5.90;;
74191;SDS011;62551;51.180;4.366;2022-09-06T06:18:39;10.27;;;5.97;;
74191;SDS011;62551;51.180;4.366;2022-09-06T06:21:07;10.48;;;6.78;;
74191;SDS011;62551;51.180;4.366;2022-09-06T06:23:34;7.30;;;5.53;;
74191;SDS011;62551;51.180;4.366;2022-09-06T06:26:01;11.63;;;6.30;;
74191;SDS011;62551;51.180;4.366;2022-09-06T06:28:28;7.80;;;6.38;;
74191;SDS011;62551;51.180;4.366;2022-09-06T06:30:56;8.05;;;5.13;;
74191;SDS011;62551;51.180;4.366;2022-09-06T06:33:24;9.32;;;5.93;;
74191;SDS011;62551;51.180;4.366;2022-09-06T06:35:55;10.82;;;5.50;;
74191;SDS011;62551;51.180;4.366;2022-09-06T06:38:22;8.38;;;6.07;;
74191;SDS011;62551;51.180;4.366;2022-09-06T06:40:49;8.52;;;5.68;;
74191;SDS011;62551;51.180;4.366;2022-09-06T06:43:16;7.05;;;5.40;;
74191;SDS011;62551;51.180;4.366;2022-09-06T06:45:47;9.60;;;5.90;;
74191;SDS011;62551;51.180;4.366;2022-09-06T06:48:15;7.20;;;5.53;;
74191;SDS011;62551;51.180;4.366;2022-09-06T06:50:43;8.20;;;4.93;;
74191;SDS011;62551;51.180;4.366;2022-09-06T06:53:10;8.48;;;5.60;;
74191;SDS011;62551;51.180;4.366;2022-09-06T06:55:38;9.88;;;5.50;;
74191;SDS011;62551;51.180;4.366;2022-09-06T06:58:05;16.65;;;5.78;;
74191;SDS011;62551;51.180;4.366;2022-09-06T07:00:32;8.18;;;5.25;;
74191;SDS011;62551;51.180;4.366;2022-09-06T07:02:59;8.18;;;4.75;;
74191;SDS011;62551;51.180;4.366;2022-09-06T07:05:27;8.98;;;4.70;;
74191;SDS011;62551;51.180;4.366;2022-09-06T07:07:55;6.50;;;4.63;;
74191;SDS011;62551;51.180;4.366;2022-09-06T07:10:23;8.02;;;4.68;;
74191;SDS011;62551;51.180;4.366;2022-09-06T07:12:50;7.22;;;4.15;;
74191;SDS011;62551;51.180;4.366;2022-09-06T07:15:17;7.03;;;4.40;;
74191;SDS011;62551;51.180;4.366;2022-09-06T07:17:45;6.55;;;3.95;;
74191;SDS011;62551;51.180;4.366;2022-09-06T07:20:12;5.70;;;3.42;;
74191;SDS011;62551;51.180;4.366;2022-09-06T07:22:39;6.30;;;3.80;;
74191;SDS011;62551;51.180;4.366;2022-09-06T07:25:08;9.00;;;3.65;;
74191;SDS011;62551;51.180;4.366;2022-09-06T07:27:37;7.47;;;3.92;;
74191;SDS011;62551;51.180;4.366;2022-09-06T07:30:04;7.07;;;3.00;;
74191;SDS011;62551;51.180;4.366;2022-09-06T07:32:33;6.25;;;2.97;;
74191;SDS011;62551;51.180;4.366;2022-09-06T07:35:00;6.20;;;2.95;;
74191;SDS011;62551;51.180;4.366;2022-09-06T07:37:27;5.10;;;2.78;;
74191;SDS011;62551;51.180;4.366;2022-09-06T07:39:54;5.10;;;2.80;;
74191;SDS011;62551;51.180;4.366;2022-09-06T07:42:23;8.40;;;2.75;;
74191;SDS011;62551;51.180;4.366;2022-09-06T07:44:50;4.05;;;2.40;;
74191;SDS011;62551;51.180;4.366;2022-09-06T07:47:18;3.88;;;2.53;;
74191;SDS011;62551;51.180;4.366;2022-09-06T07:49:45;5.15;;;3.00;;
74191;SDS011;62551;51.180;4.366;2022-09-06T07:52:12;5.22;;;2.92;;
74191;SDS011;62551;51.180;4.366;2022-09-06T07:54:39;4.57;;;2.60;;
74191;SDS011;62551;51.180;4.366;2022-09-06T07:57:07;4.97;;;2.60;;
74191;SDS011;62551;51.180;4.366;2022-09-06T07:59:37;4.15;;;2.83;;
74191;SDS011;62551;51.180;4.366;2022-09-06T08:02:04;5.55;;;2.50;;
74191;SDS011;62551;51.180;4.366;2022-09-06T08:04:31;4.68;;;2.90;;
74191;SDS011;62551;51.180;4.366;2022-09-06T08:06:59;4.35;;;2.78;;
74191;SDS011;62551;51.180;4.366;2022-09-06T08:09:26;3.67;;;2.65;;
74191;SDS011;62551;51.180;4.366;2022-09-06T08:11:53;6.75;;;2.78;;
74191;SDS011;62551;51.180;4.366;2022-09-06T08:14:20;5.57;;;2.78;;
74191;SDS011;62551;51.180;4.366;2022-09-06T08:16:49;4.38;;;2.65;;
74191;SDS011;62551;51.180;4.366;2022-09-06T08:19:16;5.35;;;2.85;;
74191;SDS011;62551;51.180;4.366;2022-09-06T08:21:43;4.78;;;2.63;;
74191;SDS011;62551;51.180;4.366;2022-09-06T08:24:10;5.18;;;3.45;;
74191;SDS011;62551;51.180;4.366;2022-09-06T08:26:38;13.63;;;5.40;;
74191;SDS011;62551;51.180;4.366;2022-09-06T08:29:06;6.55;;;3.65;;
74191;SDS011;62551;51.180;4.366;2022-09-06T08:31:35;4.63;;;3.15;;
74191;SDS011;62551;51.180;4.366;2022-09-06T08:34:04;5.82;;;3.00;;
74191;SDS011;62551;51.180;4.366;2022-09-06T08:36:31;4.68;;;3.20;;
74191;SDS011;62551;51.180;4.366;2022-09-06T08:38:59;5.30;;;3.10;;
74191;SDS011;62551;51.180;4.366;2022-09-06T08:41:28;7.68;;;3.78;;
74191;SDS011;62551;51.180;4.366;2022-09-06T08:44:01;7.45;;;3.13;;
74191;SDS011;62551;51.180;4.366;2022-09-06T08:46:30;6.82;;;3.00;;
74191;SDS011;62551;51.180;4.366;2022-09-06T08:48:58;7.72;;;3.47;;
74191;SDS011;62551;51.180;4.366;2022-09-06T08:51:32;7.93;;;4.95;;
74191;SDS011;62551;51.180;4.366;2022-09-06T08:54:05;6.90;;;3.90;;
74191;SDS011;62551;51.180;4.366;2022-09-06T08:56:37;9.05;;;4.25;;
74191;SDS011;62551;51.180;4.366;2022-09-06T08:59:10;5.72;;;3.55;;
74191;SDS011;62551;51.180;4.366;2022-09-06T09:01:40;7.65;;;4.03;;
74191;SDS011;62551;51.180;4.366;2022-09-06T09:04:12;10.35;;;6.05;;
74191;SDS011;62551;51.180;4.366;2022-09-06T09:06:41;9.57;;;5.18;;
74191;SDS011;62551;51.180;4.366;2022-09-06T09:09:10;7.60;;;4.25;;
74191;SDS011;62551;51.180;4.366;2022-09-06T09:11:39;6.05;;;3.78;;
74191;SDS011;62551;51.180;4.366;2022-09-06T09:14:11;9.30;;;4.68;;
74191;SDS011;62551;51.180;4.366;2022-09-06T09:16:41;6.45;;;3.65;;
74191;SDS011;62551;51.180;4.366;2022-09-06T09:19:08;4.75;;;3.40;;
74191;SDS011;62551;51.180;4.366;2022-09-06T09:21:36;6.30;;;3.70;;
74191;SDS011;62551;51.180;4.366;2022-09-06T09:24:06;6.82;;;3.47;;
74191;SDS011;62551;51.180;4.366;2022-09-06T09:26:35;8.23;;;3.28;;
74191;SDS011;62551;51.180;4.366;2022-09-06T09:29:05;5.10;;;3.03;;
74191;SDS011;62551;51.180;4.366;2022-09-06T09:31:33;5.28;;;3.10;;
74191;SDS011;62551;51.180;4.366;2022-09-06T09:34:00;7.93;;;3.63;;
74191;SDS011;62551;51.180;4.366;2022-09-06T09:36:29;8.27;;;3.38;;
74191;SDS011;62551;51.180;4.366;2022-09-06T09:38:56;5.85;;;3.10;;
74191;SDS011;62551;51.180;4.366;2022-09-06T09:41:28;7.75;;;3.22;;
74191;SDS011;62551;51.180;4.366;2022-09-06T09:43:57;6.90;;;3.45;;
74191;SDS011;62551;51.180;4.366;2022-09-06T09:46:29;5.50;;;3.22;;
74191;SDS011;62551;51.180;4.366;2022-09-06T09:51:26;4.25;;;3.13;;
74191;SDS011;62551;51.180;4.366;2022-09-06T09:53:53;7.05;;;3.17;;
74191;SDS011;62551;51.180;4.366;2022-09-06T09:56:25;6.10;;;3.80;;
74191;SDS011;62551;51.180;4.366;2022-09-06T09:58:55;4.40;;;2.95;;
74191;SDS011;62551;51.180;4.366;2022-09-06T10:01:24;5.65;;;2.97;;
74191;SDS011;62551;51.180;4.366;2022-09-06T10:03:58;4.00;;;2.47;;
74191;SDS011;62551;51.180;4.366;2022-09-06T10:06:25;7.13;;;3.00;;
74191;SDS011;62551;51.180;4.366;2022-09-06T10:08:53;4.28;;;2.60;;
74191;SDS011;62551;51.180;4.366;2022-09-06T10:14:10;4.90;;;2.72;;
74191;SDS011;62551;51.180;4.366;2022-09-06T10:16:40;4.95;;;2.55;;
74191;SDS011;62551;51.180;4.366;2022-09-06T10:19:20;3.53;;;2.60;;
74191;SDS011;62551;51.180;4.366;2022-09-06T10:21:47;4.40;;;2.60;;
74191;SDS011;62551;51.180;4.366;2022-09-06T10:24:17;6.40;;;2.60;;
74191;SDS011;62551;51.180;4.366;2022-09-06T10:26:50;3.78;;;2.88;;
74191;SDS011;62551;51.180;4.366;2022-09-06T10:29:21;4.93;;;2.53;;
74191;SDS011;62551;51.180;4.366;2022-09-06T10:32:05;5.18;;;2.50;;
74191;SDS011;62551;51.180;4.366;2022-09-06T10:37:24;3.50;;;2.33;;
74191;SDS011;62551;51.180;4.366;2022-09-06T10:39:54;4.13;;;2.35;;
74191;SDS011;62551;51.180;4.366;2022-09-06T10:42:25;3.33;;;1.80;;
74191;SDS011;62551;51.180;4.366;2022-09-06T10:45:02;4.15;;;2.10;;
74191;SDS011;62551;51.180;4.366;2022-09-06T10:47:37;6.82;;;2.63;;
74191;SDS011;62551;51.180;4.366;2022-09-06T10:50:10;4.85;;;2.25;;
74191;SDS011;62551;51.180;4.366;2022-09-06T10:52:38;6.88;;;1.75;;
74191;SDS011;62551;51.180;4.366;2022-09-06T10:55:08;3.13;;;1.65;;
74191;SDS011;62551;51.180;4.366;2022-09-06T10:57:38;3.08;;;1.70;;
74191;SDS011;62551;51.180;4.366;2022-09-06T11:00:10;2.92;;;1.60;;
74191;SDS011;62551;51.180;4.366;2022-09-06T11:02:39;3.90;;;1.80;;
74191;SDS011;62551;51.180;4.366;2022-09-06T11:05:07;6.88;;;1.70;;
74191;SDS011;62551;51.180;4.366;2022-09-06T11:07:39;3.40;;;1.50;;
74191;SDS011;62551;51.180;4.366;2022-09-06T11:10:08;2.40;;;1.60;;
74191;SDS011;62551;51.180;4.366;2022-09-06T11:12:38;3.25;;;1.60;;
74191;SDS011;62551;51.180;4.366;2022-09-06T11:15:05;3.53;;;1.60;;
74191;SDS011;62551;51.180;4.366;2022-09-06T11:17:37;1.73;;;1.30;;
74191;SDS011;62551;51.180;4.366;2022-09-06T11:20:06;3.70;;;1.55;;
74191;SDS011;62551;51.180;4.366;2022-09-06T11:25:30;3.50;;;1.60;;
74191;SDS011;62551;51.180;4.366;2022-09-06T11:28:01;2.67;;;1.48;;
74191;SDS011;62551;51.180;4.366;2022-09-06T11:30:30;5.72;;;1.40;;
74191;SDS011;62551;51.180;4.366;2022-09-06T11:33:08;7.07;;;1.70;;
74191;SDS011;62551;51.180;4.366;2022-09-06T11:35:36;2.28;;;1.08;;
74191;SDS011;62551;51.180;4.366;2022-09-06T11:38:10;2.65;;;1.52;;
74191;SDS011;62551;51.180;4.366;2022-09-06T11:40:43;2.25;;;1.50;;
74191;SDS011;62551;51.180;4.366;2022-09-06T11:43:15;4.32;;;1.38;;
74191;SDS011;62551;51.180;4.366;2022-09-06T11:45:44;2.80;;;1.25;;
74191;SDS011;62551;51.180;4.366;2022-09-06T11:51:03;2.40;;;1.08;;
74191;SDS011;62551;51.180;4.366;2022-09-06T11:53:32;3.13;;;1.38;;
74191;SDS011;62551;51.180;4.366;2022-09-06T11:56:10;3.58;;;1.17;;
74191;SDS011;62551;51.180;4.366;2022-09-06T11:58:44;1.88;;;1.30;;
74191;SDS011;62551;51.180;4.366;2022-09-06T12:01:33;2.92;;;1.30;;
74191;SDS011;62551;51.180;4.366;2022-09-06T12:04:02;2.92;;;1.38;;
74191;SDS011;62551;51.180;4.366;2022-09-06T12:06:31;3.28;;;1.42;;
74191;SDS011;62551;51.180;4.366;2022-09-06T12:08:59;2.85;;;1.10;;
74191;SDS011;62551;51.180;4.366;2022-09-06T12:11:36;2.05;;;1.40;;
74191;SDS011;62551;51.180;4.366;2022-09-06T12:14:04;1.65;;;1.20;;
74191;SDS011;62551;51.180;4.366;2022-09-06T12:19:37;3.72;;;1.10;;
74191;SDS011;62551;51.180;4.366;2022-09-06T12:24:52;2.85;;;1.48;;
74191;SDS011;62551;51.180;4.366;2022-09-06T12:27:20;4.38;;;1.30;;
74191;SDS011;62551;51.180;4.366;2022-09-06T12:29:52;3.90;;;1.40;;
74191;SDS011;62551;51.180;4.366;2022-09-06T12:32:21;2.47;;;1.00;;
74191;SDS011;62551;51.180;4.366;2022-09-06T12:34:49;3.65;;;1.33;;
74191;SDS011;62551;51.180;4.366;2022-09-06T12:37:28;2.05;;;1.10;;
74191;SDS011;62551;51.180;4.366;2022-09-06T12:39:57;2.03;;;1.10;;
74191;SDS011;62551;51.180;4.366;2022-09-06T12:42:25;2.05;;;1.15;;
74191;SDS011;62551;51.180;4.366;2022-09-06T12:44:53;2.60;;;1.10;;
74191;SDS011;62551;51.180;4.366;2022-09-06T12:47:21;1.75;;;1.10;;
74191;SDS011;62551;51.180;4.366;2022-09-06T12:50:04;3.03;;;1.00;;
74191;SDS011;62551;51.180;4.366;2022-09-06T12:52:31;1.98;;;1.13;;
74191;SDS011;62551;51.180;4.366;2022-09-06T12:55:00;1.70;;;1.10;;
74191;SDS011;62551;51.180;4.366;2022-09-06T12:57:27;2.55;;;1.20;;
74191;SDS011;62551;51.180;4.366;2022-09-06T12:59:55;3.13;;;1.25;;
74191;SDS011;62551;51.180;4.366;2022-09-06T13:02:24;3.03;;;1.33;;
74191;SDS011;62551;51.180;4.366;2022-09-06T13:04:54;2.80;;;1.30;;
74191;SDS011;62551;51.180;4.366;2022-09-06T13:07:25;2.50;;;1.40;;
74191;SDS011;62551;51.180;4.366;2022-09-06T13:09:54;2.92;;;1.10;;
74191;SDS011;62551;51.180;4.366;2022-09-06T13:12:24;3.35;;;1.15;;
74191;SDS011;62551;51.180;4.366;2022-09-06T13:14:53;2.28;;;1.05;;
74191;SDS011;62551;51.180;4.366;2022-09-06T13:17:21;4.95;;;1.73;;
74191;SDS011;62551;51.180;4.366;2022-09-06T13:19:49;3.05;;;1.33;;
74191;SDS011;62551;51.180;4.366;2022-09-06T13:24:59;5.03;;;1.50;;
74191;SDS011;62551;51.180;4.366;2022-09-06T13:27:33;2.03;;;1.20;;
74191;SDS011;62551;51.180;4.366;2022-09-06T13:30:02;4.47;;;1.30;;
74191;SDS011;62551;51.180;4.366;2022-09-06T13:32:30;4.28;;;1.50;;
74191;SDS011;62551;51.180;4.366;2022-09-06T13:34:58;6.25;;;1.55;;
74191;SDS011;62551;51.180;4.366;2022-09-06T13:37:26;2.80;;;1.30;;
74191;SDS011;62551;51.180;4.366;2022-09-06T13:39:53;2.45;;;1.67;;
74191;SDS011;62551;51.180;4.366;2022-09-06T13:42:30;5.18;;;1.80;;
74191;SDS011;62551;51.180;4.366;2022-09-06T13:47:43;2.60;;;1.58;;
74191;SDS011;62551;51.180;4.366;2022-09-06T13:50:10;3.63;;;1.80;;
74191;SDS011;62551;51.180;4.366;2022-09-06T13:52:38;1.38;;;1.10;;
74191;SDS011;62551;51.180;4.366;2022-09-06T13:55:06;3.78;;;1.20;;
74191;SDS011;62551;51.180;4.366;2022-09-06T13:57:33;4.05;;;1.40;;
74191;SDS011;62551;51.180;4.366;2022-09-06T14:00:00;1.83;;;1.50;;
74191;SDS011;62551;51.180;4.366;2022-09-06T14:02:28;3.30;;;1.50;;
74191;SDS011;62551;51.180;4.366;2022-09-06T14:04:56;5.47;;;1.42;;
74191;SDS011;62551;51.180;4.366;2022-09-06T14:07:24;3.78;;;1.50;;
74191;SDS011;62551;51.180;4.366;2022-09-06T14:09:51;2.95;;;1.35;;
74191;SDS011;62551;51.180;4.366;2022-09-06T14:12:18;2.90;;;1.38;;
74191;SDS011;62551;51.180;4.366;2022-09-06T14:14:45;2.67;;;1.20;;
74191;SDS011;62551;51.180;4.366;2022-09-06T14:17:13;2.67;;;1.40;;
74191;SDS011;62551;51.180;4.366;2022-09-06T14:19:40;2.85;;;1.38;;
74191;SDS011;62551;51.180;4.366;2022-09-06T14:22:08;2.50;;;1.38;;
74191;SDS011;62551;51.180;4.366;2022-09-06T14:24:36;2.90;;;1.75;;
74191;SDS011;62551;51.180;4.366;2022-09-06T14:27:03;2.97;;;1.30;;
74191;SDS011;62551;51.180;4.366;2022-09-06T14:29:31;2.97;;;1.33;;
74191;SDS011;62551;51.180;4.366;2022-09-06T14:31:59;2.60;;;1.42;;
74191;SDS011;62551;51.180;4.366;2022-09-06T14:34:26;3.83;;;2.00;;
74191;SDS011;62551;51.180;4.366;2022-09-06T14:36:53;3.47;;;1.27;;
74191;SDS011;62551;51.180;4.366;2022-09-06T14:39:22;3.03;;;1.40;;
74191;SDS011;62551;51.180;4.366;2022-09-06T14:41:49;3.80;;;1.50;;
74191;SDS011;62551;51.180;4.366;2022-09-06T14:44:17;2.20;;;1.40;;
74191;SDS011;62551;51.180;4.366;2022-09-06T14:46:44;4.68;;;1.48;;
74191;SDS011;62551;51.180;4.366;2022-09-06T14:49:13;4.60;;;2.05;;
74191;SDS011;62551;51.180;4.366;2022-09-06T14:51:40;2.90;;;1.50;;
74191;SDS011;62551;51.180;4.366;2022-09-06T14:54:08;2.33;;;1.20;;
74191;SDS011;62551;51.180;4.366;2022-09-06T14:56:37;2.08;;;1.40;;
74191;SDS011;62551;51.180;4.366;2022-09-06T14:59:05;6.07;;;1.40;;
74191;SDS011;62551;51.180;4.366;2022-09-06T15:01:33;4.20;;;1.38;;
74191;SDS011;62551;51.180;4.366;2022-09-06T15:04:01;2.20;;;1.30;;
74191;SDS011;62551;51.180;4.366;2022-09-06T15:06:29;5.38;;;1.33;;
74191;SDS011;62551;51.180;4.366;2022-09-06T15:08:56;2.42;;;1.23;;
74191;SDS011;62551;51.180;4.366;2022-09-06T15:11:27;3.00;;;1.40;;
74191;SDS011;62551;51.180;4.366;2022-09-06T15:13:56;1.92;;;1.27;;
74191;SDS011;62551;51.180;4.366;2022-09-06T15:16:23;1.98;;;1.38;;
74191;SDS011;62551;51.180;4.366;2022-09-06T15:18:52;6.75;;;2.38;;
74191;SDS011;62551;51.180;4.366;2022-09-06T15:21:19;3.67;;;1.75;;
74191;SDS011;62551;51.180;4.366;2022-09-06T15:23:47;6.35;;;1.80;;
74191;SDS011;62551;51.180;4.366;2022-09-06T15:26:14;2.10;;;1.17;;